sensor_id;sensor_type;location;lat;lon;timestamp;pressure;altitude;pressure_sealevel;temperature;humidity
6216;BME280;3141;49.234;9.326;2023-03-04T00:00:12;100252.09;;;2.73;69.78
6216;BME280;3141;49.234;9.326;2023-03-04T00:00:54;100259.81;;;2.75;69.81
6216;BME280;3141;49.234;9.326;2023-03-04T00:01:36;100256.31;;;2.76;69.98
6216;BME280;3141;49.234;9.326;2023-03-04T00:02:19;100258.53;;;2.68;69.76
6216;BME280;3141;49.234;9.326;2023-03-04T00:03:01;100256.47;;;2.59;70.21
6216;BME280;3141;49.234;9.326;2023-03-04T00:03:43;100259.25;;;2.56;70.99
6216;BME280;3141;49.234;9.326;2023-03-04T00:04:26;100256.63;;;2.56;70.87
6216;BME280;3141;49.234;9.326;2023-03-04T00:05:08;100259.63;;;2.50;70.99
6216;BME280;3141;49.234;9.326;2023-03-04T00:05:51;100258.13;;;2.46;70.78
6216;BME280;3141;49.234;9.326;2023-03-04T00:06:33;100259.16;;;2.43;70.81
6216;BME280;3141;49.234;9.326;2023-03-04T00:07:15;100261.94;;;2.40;71.63
6216;BME280;3141;49.234;9.326;2023-03-04T00:07:59;100269.59;;;2.43;71.29
6216;BME280;3141;49.234;9.326;2023-03-04T00:08:42;100261.09;;;2.40;71.30
6216;BME280;3141;49.234;9.326;2023-03-04T00:09:24;100265.56;;;2.38;71.72
6216;BME280;3141;49.234;9.326;2023-03-04T00:10:07;100266.56;;;2.35;71.46
6216;BME280;3141;49.234;9.326;2023-03-04T00:10:50;100266.13;;;2.43;71.45
6216;BME280;3141;49.234;9.326;2023-03-04T00:11:32;100264.28;;;2.45;71.65
6216;BME280;3141;49.234;9.326;2023-03-04T00:12:15;100271.78;;;2.35;71.11
6216;BME280;3141;49.234;9.326;2023-03-04T00:12:57;100269.75;;;2.40;71.17
6216;BME280;3141;49.234;9.326;2023-03-04T00:13:39;100268.09;;;2.39;71.17
6216;BME280;3141;49.234;9.326;2023-03-04T00:14:22;100268.28;;;2.36;71.45
6216;BME280;3141;49.234;9.326;2023-03-04T00:15:05;100272.06;;;2.30;71.31
6216;BME280;3141;49.234;9.326;2023-03-04T00:15:48;100274.59;;;2.32;71.41
6216;BME280;3141;49.234;9.326;2023-03-04T00:16:30;100267.81;;;2.29;71.36
6216;BME280;3141;49.234;9.326;2023-03-04T00:17:12;100264.69;;;2.23;71.53
6216;BME280;3141;49.234;9.326;2023-03-04T00:17:55;100267.19;;;2.24;71.33
6216;BME280;3141;49.234;9.326;2023-03-04T00:18:37;100262.06;;;2.23;71.51
6216;BME280;3141;49.234;9.326;2023-03-04T00:19:19;100268.03;;;2.25;71.46
6216;BME280;3141;49.234;9.326;2023-03-04T00:20:02;100270.84;;;2.22;71.21
6216;BME280;3141;49.234;9.326;2023-03-04T00:20:44;100273.06;;;2.28;70.92
6216;BME280;3141;49.234;9.326;2023-03-04T00:21:27;100273.84;;;2.30;71.45
6216;BME280;3141;49.234;9.326;2023-03-04T00:22:09;100268.91;;;2.25;70.70
6216;BME280;3141;49.234;9.326;2023-03-04T00:22:52;100272.34;;;2.26;70.58
6216;BME280;3141;49.234;9.326;2023-03-04T00:23:34;100270.66;;;2.25;71.02
6216;BME280;3141;49.234;9.326;2023-03-04T00:24:16;100264.25;;;2.30;70.92
6216;BME280;3141;49.234;9.326;2023-03-04T00:24:58;100265.63;;;2.22;70.61
6216;BME280;3141;49.234;9.326;2023-03-04T00:25:41;100268.34;;;2.20;70.89
6216;BME280;3141;49.234;9.326;2023-03-04T00:26:23;100265.88;;;2.17;71.31
6216;BME280;3141;49.234;9.326;2023-03-04T00:27:06;100269.50;;;2.15;71.27
6216;BME280;3141;49.234;9.326;2023-03-04T00:27:48;100263.97;;;2.05;71.36
6216;BME280;3141;49.234;9.326;2023-03-04T00:28:30;100270.56;;;1.97;71.82
6216;BME280;3141;49.234;9.326;2023-03-04T00:29:12;100270.56;;;1.97;72.30
6216;BME280;3141;49.234;9.326;2023-03-04T00:29:55;100273.25;;;1.95;72.53
6216;BME280;3141;49.234;9.326;2023-03-04T00:30:38;100274.00;;;1.97;72.13
6216;BME280;3141;49.234;9.326;2023-03-04T00:31:20;100274.38;;;1.91;72.42
6216;BME280;3141;49.234;9.326;2023-03-04T00:32:02;100277.66;;;1.95;72.19
6216;BME280;3141;49.234;9.326;2023-03-04T00:32:45;100273.09;;;1.98;72.32
6216;BME280;3141;49.234;9.326;2023-03-04T00:33:27;100279.63;;;2.05;72.14
6216;BME280;3141;49.234;9.326;2023-03-04T00:34:09;100268.38;;;2.05;72.03
6216;BME280;3141;49.234;9.326;2023-03-04T00:34:52;100276.69;;;2.11;71.84
6216;BME280;3141;49.234;9.326;2023-03-04T00:35:34;100277.94;;;2.04;72.11
6216;BME280;3141;49.234;9.326;2023-03-04T00:36:16;100269.03;;;2.08;72.08
6216;BME280;3141;49.234;9.326;2023-03-04T00:36:59;100271.78;;;2.05;71.89
6216;BME280;3141;49.234;9.326;2023-03-04T00:37:43;100274.78;;;1.99;72.42
6216;BME280;3141;49.234;9.326;2023-03-04T00:38:25;100272.06;;;2.01;72.57
6216;BME280;3141;49.234;9.326;2023-03-04T00:39:08;100268.72;;;1.99;72.87
6216;BME280;3141;49.234;9.326;2023-03-04T00:39:50;100267.88;;;1.98;72.68
6216;BME280;3141;49.234;9.326;2023-03-04T00:40:32;100267.88;;;1.98;73.11
6216;BME280;3141;49.234;9.326;2023-03-04T00:41:15;100272.06;;;2.01;72.59
6216;BME280;3141;49.234;9.326;2023-03-04T00:41:57;100266.75;;;2.02;72.79
6216;BME280;3141;49.234;9.326;2023-03-04T00:42:39;100267.53;;;2.04;73.00
6216;BME280;3141;49.234;9.326;2023-03-04T00:43:22;100264.25;;;2.01;73.01
6216;BME280;3141;49.234;9.326;2023-03-04T00:44:05;100274.69;;;2.01;73.16
6216;BME280;3141;49.234;9.326;2023-03-04T00:44:47;100265.09;;;2.01;73.06
6216;BME280;3141;49.234;9.326;2023-03-04T00:45:30;100267.63;;;2.03;73.15
6216;BME280;3141;49.234;9.326;2023-03-04T00:46:13;100264.16;;;2.02;72.77
6216;BME280;3141;49.234;9.326;2023-03-04T00:46:55;100272.44;;;1.95;73.36
6216;BME280;3141;49.234;9.326;2023-03-04T00:47:37;100265.84;;;2.03;73.27
6216;BME280;3141;49.234;9.326;2023-03-04T00:48:20;100271.22;;;2.00;72.75
6216;BME280;3141;49.234;9.326;2023-03-04T00:49:02;100266.38;;;1.94;73.09
6216;BME280;3141;49.234;9.326;2023-03-04T00:49:45;100259.81;;;1.87;73.08
6216;BME280;3141;49.234;9.326;2023-03-04T00:50:27;100267.56;;;1.89;73.20
6216;BME280;3141;49.234;9.326;2023-03-04T00:51:09;100264.69;;;1.93;73.26
6216;BME280;3141;49.234;9.326;2023-03-04T00:51:52;100267.13;;;1.96;73.16
6216;BME280;3141;49.234;9.326;2023-03-04T00:52:34;100263.69;;;1.96;72.67
6216;BME280;3141;49.234;9.326;2023-03-04T00:53:16;100262.81;;;1.95;72.71
6216;BME280;3141;49.234;9.326;2023-03-04T00:53:59;100267.78;;;2.00;72.71
6216;BME280;3141;49.234;9.326;2023-03-04T00:54:41;100262.31;;;2.04;72.53
6216;BME280;3141;49.234;9.326;2023-03-04T00:55:24;100263.06;;;2.06;71.93
6216;BME280;3141;49.234;9.326;2023-03-04T00:56:07;100257.41;;;2.14;72.03
6216;BME280;3141;49.234;9.326;2023-03-04T00:56:49;100259.28;;;2.12;71.77
6216;BME280;3141;49.234;9.326;2023-03-04T00:57:31;100269.19;;;2.05;71.64
6216;BME280;3141;49.234;9.326;2023-03-04T00:58:14;100256.53;;;1.99;71.81
6216;BME280;3141;49.234;9.326;2023-03-04T00:58:56;100259.88;;;2.01;71.52
6216;BME280;3141;49.234;9.326;2023-03-04T00:59:38;100258.28;;;1.99;71.44
6216;BME280;3141;49.234;9.326;2023-03-04T01:00:22;100253.25;;;1.96;71.43
6216;BME280;3141;49.234;9.326;2023-03-04T01:01:05;100255.00;;;1.95;71.52
6216;BME280;3141;49.234;9.326;2023-03-04T01:01:48;100259.13;;;1.99;71.41
6216;BME280;3141;49.234;9.326;2023-03-04T01:02:30;100260.78;;;2.00;71.43
6216;BME280;3141;49.234;9.326;2023-03-04T01:03:12;100260.97;;;1.97;71.32
6216;BME280;3141;49.234;9.326;2023-03-04T01:03:55;100260.78;;;2.00;70.99
6216;BME280;3141;49.234;9.326;2023-03-04T01:04:37;100255.56;;;2.00;70.93
6216;BME280;3141;49.234;9.326;2023-03-04T01:05:20;100260.50;;;1.91;70.87
6216;BME280;3141;49.234;9.326;2023-03-04T01:06:03;100252.94;;;1.86;71.49
6216;BME280;3141;49.234;9.326;2023-03-04T01:06:45;100256.75;;;1.81;71.58
6216;BME280;3141;49.234;9.326;2023-03-04T01:07:27;100260.34;;;1.78;72.00
6216;BME280;3141;49.234;9.326;2023-03-04T01:08:10;100265.38;;;1.81;71.44
6216;BME280;3141;49.234;9.326;2023-03-04T01:08:52;100257.34;;;1.70;71.93
6216;BME280;3141;49.234;9.326;2023-03-04T01:09:34;100257.50;;;1.67;72.04
6216;BME280;3141;49.234;9.326;2023-03-04T01:10:17;100250.38;;;1.71;72.63
6216;BME280;3141;49.234;9.326;2023-03-04T01:11:00;100251.75;;;1.76;72.09
6216;BME280;3141;49.234;9.326;2023-03-04T01:11:42;100254.81;;;1.69;71.82
6216;BME280;3141;49.234;9.326;2023-03-04T01:12:24;100262.78;;;1.66;72.23
6216;BME280;3141;49.234;9.326;2023-03-04T01:13:07;100261.03;;;1.66;72.20
6216;BME280;3141;49.234;9.326;2023-03-04T01:13:49;100249.13;;;1.62;72.06
6216;BME280;3141;49.234;9.326;2023-03-04T01:14:31;100254.25;;;1.64;72.51
6216;BME280;3141;49.234;9.326;2023-03-04T01:15:14;100253.66;;;1.59;72.22
6216;BME280;3141;49.234;9.326;2023-03-04T01:15:56;100256.31;;;1.57;72.20
6216;BME280;3141;49.234;9.326;2023-03-04T01:16:38;100260.63;;;1.58;72.41
6216;BME280;3141;49.234;9.326;2023-03-04T01:17:21;100253.81;;;1.56;72.46
6216;BME280;3141;49.234;9.326;2023-03-04T01:18:03;100256.31;;;1.57;72.16
6216;BME280;3141;49.234;9.326;2023-03-04T01:18:46;100257.44;;;1.69;72.43
6216;BME280;3141;49.234;9.326;2023-03-04T01:19:28;100254.16;;;1.65;71.94
6216;BME280;3141;49.234;9.326;2023-03-04T01:20:11;100258.34;;;1.68;71.62
6216;BME280;3141;49.234;9.326;2023-03-04T01:20:54;100253.13;;;1.68;71.20
6216;BME280;3141;49.234;9.326;2023-03-04T01:21:36;100253.31;;;1.65;71.52
6216;BME280;3141;49.234;9.326;2023-03-04T01:22:18;100249.59;;;1.69;71.64
6216;BME280;3141;49.234;9.326;2023-03-04T01:23:01;100254.91;;;1.67;71.40
6216;BME280;3141;49.234;9.326;2023-03-04T01:23:43;100253.97;;;1.68;71.20
6216;BME280;3141;49.234;9.326;2023-03-04T01:24:25;100250.22;;;1.58;71.65
6216;BME280;3141;49.234;9.326;2023-03-04T01:25:08;100250.63;;;1.51;71.93
6216;BME280;3141;49.234;9.326;2023-03-04T01:25:51;100254.91;;;1.52;72.04
6216;BME280;3141;49.234;9.326;2023-03-04T01:26:33;100253.91;;;1.54;72.13
6216;BME280;3141;49.234;9.326;2023-03-04T01:27:15;100255.34;;;1.44;72.44
6216;BME280;3141;49.234;9.326;2023-03-04T01:27:58;100248.47;;;1.43;72.76
6216;BME280;3141;49.234;9.326;2023-03-04T01:28:40;100245.09;;;1.41;72.94
6216;BME280;3141;49.234;9.326;2023-03-04T01:29:22;100247.84;;;1.38;72.94
6216;BME280;3141;49.234;9.326;2023-03-04T01:30:05;100248.03;;;1.35;72.91
6216;BME280;3141;49.234;9.326;2023-03-04T01:30:48;100241.91;;;1.36;73.10
6216;BME280;3141;49.234;9.326;2023-03-04T01:31:30;100242.22;;;1.30;73.21
6216;BME280;3141;49.234;9.326;2023-03-04T01:32:12;100252.47;;;1.33;73.14
6216;BME280;3141;49.234;9.326;2023-03-04T01:32:55;100252.31;;;1.36;73.25
6216;BME280;3141;49.234;9.326;2023-03-04T01:33:37;100240.38;;;1.32;72.98
6216;BME280;3141;49.234;9.326;2023-03-04T01:34:19;100252.31;;;1.36;73.00
6216;BME280;3141;49.234;9.326;2023-03-04T01:35:02;100255.34;;;1.44;72.48
6216;BME280;3141;49.234;9.326;2023-03-04T01:35:44;100249.94;;;1.47;72.16
6216;BME280;3141;49.234;9.326;2023-03-04T01:36:27;100248.28;;;1.46;72.07
6216;BME280;3141;49.234;9.326;2023-03-04T01:37:10;100250.63;;;1.51;71.86
6216;BME280;3141;49.234;9.326;2023-03-04T01:37:54;100245.69;;;1.46;72.09
6216;BME280;3141;49.234;9.326;2023-03-04T01:38:37;100251.28;;;1.54;71.95
6216;BME280;3141;49.234;9.326;2023-03-04T01:39:19;100245.22;;;1.54;71.51
6216;BME280;3141;49.234;9.326;2023-03-04T01:40:02;100242.56;;;1.55;71.46
6216;BME280;3141;49.234;9.326;2023-03-04T01:40:46;100242.31;;;1.44;71.93
6216;BME280;3141;49.234;9.326;2023-03-04T01:41:30;100243.38;;;1.40;71.85
6216;BME280;3141;49.234;9.326;2023-03-04T01:42:18;100251.97;;;1.42;72.18
6216;BME280;3141;49.234;9.326;2023-03-04T01:43:01;100248.19;;;1.48;72.01
6216;BME280;3141;49.234;9.326;2023-03-04T01:43:43;100241.38;;;1.45;71.88
6216;BME280;3141;49.234;9.326;2023-03-04T01:44:26;100236.53;;;1.39;72.20
6216;BME280;3141;49.234;9.326;2023-03-04T01:45:17;100237.41;;;1.38;72.00
6216;BME280;3141;49.234;9.326;2023-03-04T01:46:00;100244.59;;;1.35;72.61
6216;BME280;3141;49.234;9.326;2023-03-04T01:46:47;100239.38;;;1.35;72.50
6216;BME280;3141;49.234;9.326;2023-03-04T01:47:32;100237.88;;;1.31;72.66
6216;BME280;3141;49.234;9.326;2023-03-04T01:48:20;100246.34;;;1.34;72.52
6216;BME280;3141;49.234;9.326;2023-03-04T01:49:05;100243.25;;;1.43;72.34
6216;BME280;3141;49.234;9.326;2023-03-04T01:49:52;100241.22;;;1.48;72.35
6216;BME280;3141;49.234;9.326;2023-03-04T01:50:35;100243.38;;;1.40;71.88
6216;BME280;3141;49.234;9.326;2023-03-04T01:51:19;100238.53;;;1.34;72.20
6216;BME280;3141;49.234;9.326;2023-03-04T01:52:01;100240.47;;;1.31;72.19
6216;BME280;3141;49.234;9.326;2023-03-04T01:52:43;100239.38;;;1.35;72.14
6216;BME280;3141;49.234;9.326;2023-03-04T01:53:26;100241.38;;;1.30;72.46
6216;BME280;3141;49.234;9.326;2023-03-04T01:54:09;100238.53;;;1.34;72.15
6216;BME280;3141;49.234;9.326;2023-03-04T01:54:51;100235.16;;;1.32;72.25
6216;BME280;3141;49.234;9.326;2023-03-04T01:55:33;100238.44;;;1.36;72.17
6216;BME280;3141;49.234;9.326;2023-03-04T01:56:24;100230.72;;;1.34;72.36
6216;BME280;3141;49.234;9.326;2023-03-04T01:57:21;100232.88;;;1.26;72.14
6216;BME280;3141;49.234;9.326;2023-03-04T01:58:04;100240.13;;;1.21;72.57
6216;BME280;3141;49.234;9.326;2023-03-04T02:00:14;100232.31;;;1.21;72.50
6216;BME280;3141;49.234;9.326;2023-03-04T02:00:58;100238.34;;;1.22;72.25
6216;BME280;3141;49.234;9.326;2023-03-04T02:01:49;100239.22;;;1.22;72.45
6216;BME280;3141;49.234;9.326;2023-03-04T02:02:32;100231.81;;;1.30;71.93
6216;BME280;3141;49.234;9.326;2023-03-04T02:03:16;100230.28;;;1.26;72.18
6216;BME280;3141;49.234;9.326;2023-03-04T02:04:03;100233.81;;;1.25;72.47
6216;BME280;3141;49.234;9.326;2023-03-04T02:04:45;100231.13;;;1.27;72.19
6216;BME280;3141;49.234;9.326;2023-03-04T02:05:29;100235.50;;;1.26;72.38
6216;BME280;3141;49.234;9.326;2023-03-04T02:06:11;100231.97;;;1.27;72.42
6216;BME280;3141;49.234;9.326;2023-03-04T02:06:55;100221.56;;;1.27;72.33
6216;BME280;3141;49.234;9.326;2023-03-04T02:07:37;100234.19;;;1.19;72.34
6216;BME280;3141;49.234;9.326;2023-03-04T02:08:21;100236.03;;;1.17;72.33
6216;BME280;3141;49.234;9.326;2023-03-04T02:09:05;100234.31;;;1.16;72.46
6216;BME280;3141;49.234;9.326;2023-03-04T02:09:47;100231.97;;;1.11;73.04
6216;BME280;3141;49.234;9.326;2023-03-04T02:10:30;100229.69;;;1.05;73.23
6216;BME280;3141;49.234;9.326;2023-03-04T02:11:13;100226.75;;;0.96;73.34
6216;BME280;3141;49.234;9.326;2023-03-04T02:11:55;100223.22;;;0.97;73.66
6216;BME280;3141;49.234;9.326;2023-03-04T02:12:38;100226.59;;;0.99;73.51
6216;BME280;3141;49.234;9.326;2023-03-04T02:13:20;100228.63;;;1.09;73.06
6216;BME280;3141;49.234;9.326;2023-03-04T02:14:04;100227.63;;;1.12;73.25
6216;BME280;3141;49.234;9.326;2023-03-04T02:14:47;100232.16;;;1.08;72.57
6216;BME280;3141;49.234;9.326;2023-03-04T02:15:29;100223.56;;;1.06;72.86
6216;BME280;3141;49.234;9.326;2023-03-04T02:16:12;100235.31;;;0.98;72.79
6216;BME280;3141;49.234;9.326;2023-03-04T02:16:54;100221.72;;;0.93;73.37
6216;BME280;3141;49.234;9.326;2023-03-04T02:17:37;100225.56;;;0.86;73.32
6216;BME280;3141;49.234;9.326;2023-03-04T02:18:22;100225.72;;;0.83;73.54
6216;BME280;3141;49.234;9.326;2023-03-04T02:19:07;100223.44;;;0.77;73.76
6216;BME280;3141;49.234;9.326;2023-03-04T02:20:22;100226.56;;;0.83;73.41
6216;BME280;3141;49.234;9.326;2023-03-04T02:21:12;100227.41;;;0.84;73.72
6216;BME280;3141;49.234;9.326;2023-03-04T02:21:56;100220.88;;;0.92;73.30
6216;BME280;3141;49.234;9.326;2023-03-04T02:22:45;100226.84;;;0.94;73.39
6216;BME280;3141;49.234;9.326;2023-03-04T02:23:45;100227.66;;;0.95;73.26
6216;BME280;3141;49.234;9.326;2023-03-04T02:24:40;100225.41;;;0.89;73.14
6216;BME280;3141;49.234;9.326;2023-03-04T02:25:30;100230.59;;;0.89;73.15
6216;BME280;3141;49.234;9.326;2023-03-04T02:26:15;100225.41;;;0.89;73.33
6216;BME280;3141;49.234;9.326;2023-03-04T02:26:58;100222.72;;;0.90;73.10
6216;BME280;3141;49.234;9.326;2023-03-04T02:27:41;100223.66;;;0.89;73.07
6216;BME280;3141;49.234;9.326;2023-03-04T02:28:23;100220.03;;;0.92;73.34
6216;BME280;3141;49.234;9.326;2023-03-04T02:29:05;100214.06;;;0.90;73.33
6216;BME280;3141;49.234;9.326;2023-03-04T02:29:48;100220.03;;;0.92;73.47
6216;BME280;3141;49.234;9.326;2023-03-04T02:30:30;100220.69;;;0.95;73.03
6216;BME280;3141;49.234;9.326;2023-03-04T02:31:22;100224.75;;;1.01;72.95
6216;BME280;3141;49.234;9.326;2023-03-04T02:32:05;100221.19;;;1.02;72.82
6216;BME280;3141;49.234;9.326;2023-03-04T02:32:47;100220.53;;;0.98;72.63
6216;BME280;3141;49.234;9.326;2023-03-04T02:33:30;100217.25;;;0.95;72.75
6216;BME280;3141;49.234;9.326;2023-03-04T02:34:17;100223.47;;;0.92;73.00
6216;BME280;3141;49.234;9.326;2023-03-04T02:35:00;100223.22;;;0.97;72.79
6216;BME280;3141;49.234;9.326;2023-03-04T02:35:42;100220.53;;;0.98;72.66
6216;BME280;3141;49.234;9.326;2023-03-04T02:36:25;100214.00;;;0.91;72.78
6216;BME280;3141;49.234;9.326;2023-03-04T02:37:09;100219.59;;;0.84;73.14
6216;BME280;3141;49.234;9.326;2023-03-04T02:37:51;100218.00;;;0.81;73.25
6216;BME280;3141;49.234;9.326;2023-03-04T02:38:34;100222.22;;;0.84;72.83
6216;BME280;3141;49.234;9.326;2023-03-04T02:40:01;100217.66;;;0.72;73.46
6216;BME280;3141;49.234;9.326;2023-03-04T02:40:47;100218.81;;;0.66;73.54
6216;BME280;3141;49.234;9.326;2023-03-04T02:41:32;100211.97;;;0.81;73.62
6216;BME280;3141;49.234;9.326;2023-03-04T02:42:15;100215.31;;;0.83;73.38
6216;BME280;3141;49.234;9.326;2023-03-04T02:42:59;100226.34;;;0.88;72.84
6216;BME280;3141;49.234;9.326;2023-03-04T02:43:43;100224.25;;;0.94;72.90
6216;BME280;3141;49.234;9.326;2023-03-04T02:44:29;100222.41;;;0.96;72.69
6216;BME280;3141;49.234;9.326;2023-03-04T02:46:19;100225.41;;;1.04;71.83
6216;BME280;3141;49.234;9.326;2023-03-04T02:47:03;100216.00;;;1.02;71.62
6216;BME280;3141;49.234;9.326;2023-03-04T02:47:46;100223.66;;;1.05;71.50
6216;BME280;3141;49.234;9.326;2023-03-04T02:48:28;100220.22;;;1.04;71.36
6216;BME280;3141;49.234;9.326;2023-03-04T02:49:10;100220.31;;;1.03;71.59
6216;BME280;3141;49.234;9.326;2023-03-04T02:49:53;100225.41;;;1.04;71.82
6216;BME280;3141;49.234;9.326;2023-03-04T02:50:40;100214.41;;;0.99;71.06
6216;BME280;3141;49.234;9.326;2023-03-04T02:51:23;100218.78;;;0.99;71.16
6216;BME280;3141;49.234;9.326;2023-03-04T02:52:06;100216.34;;;0.96;71.53
6216;BME280;3141;49.234;9.326;2023-03-04T02:52:49;100216.25;;;0.82;71.83
6216;BME280;3141;49.234;9.326;2023-03-04T02:53:32;100214.78;;;0.76;71.89
6216;BME280;3141;49.234;9.326;2023-03-04T02:54:23;100219.50;;;0.70;71.81
6216;BME280;3141;49.234;9.326;2023-03-04T02:55:06;100215.13;;;0.70;72.05
6216;BME280;3141;49.234;9.326;2023-03-04T02:55:48;100214.19;;;0.71;72.03
6216;BME280;3141;49.234;9.326;2023-03-04T02:56:30;100220.00;;;0.76;71.82
6216;BME280;3141;49.234;9.326;2023-03-04T02:57:13;100218.41;;;0.74;72.11
6216;BME280;3141;49.234;9.326;2023-03-04T02:57:56;100217.47;;;0.75;72.11
6216;BME280;3141;49.234;9.326;2023-03-04T02:58:38;100215.38;;;0.81;72.22
6216;BME280;3141;49.234;9.326;2023-03-04T02:59:22;100217.19;;;0.81;71.96
6216;BME280;3141;49.234;9.326;2023-03-04T03:00:05;100212.69;;;0.83;71.76
6216;BME280;3141;49.234;9.326;2023-03-04T03:00:47;100211.22;;;0.79;71.91
6216;BME280;3141;49.234;9.326;2023-03-04T03:01:29;100216.56;;;0.76;71.74
6216;BME280;3141;49.234;9.326;2023-03-04T03:02:12;100214.78;;;0.76;71.89
6216;BME280;3141;49.234;9.326;2023-03-04T03:02:54;100223.19;;;0.81;71.90
6216;BME280;3141;49.234;9.326;2023-03-04T03:03:38;100215.16;;;0.86;71.57
6216;BME280;3141;49.234;9.326;2023-03-04T03:04:21;100215.47;;;0.80;71.62
6216;BME280;3141;49.234;9.326;2023-03-04T03:05:04;100217.81;;;0.69;72.15
6216;BME280;3141;49.234;9.326;2023-03-04T03:05:47;100215.94;;;0.71;72.50
6216;BME280;3141;49.234;9.326;2023-03-04T03:06:29;100216.41;;;0.79;72.55
6216;BME280;3141;49.234;9.326;2023-03-04T03:07:11;100215.66;;;0.77;72.31
6216;BME280;3141;49.234;9.326;2023-03-04T03:07:54;100215.47;;;0.80;72.63
6216;BME280;3141;49.234;9.326;2023-03-04T03:08:36;100219.25;;;0.90;72.19
6216;BME280;3141;49.234;9.326;2023-03-04T03:09:19;100220.88;;;0.92;71.98
6216;BME280;3141;49.234;9.326;2023-03-04T03:10:01;100219.34;;;0.88;72.04
6216;BME280;3141;49.234;9.326;2023-03-04T03:10:43;100212.22;;;0.92;72.28
6216;BME280;3141;49.234;9.326;2023-03-04T03:11:26;100221.47;;;0.97;72.19
6216;BME280;3141;49.234;9.326;2023-03-04T03:12:08;100220.38;;;1.01;71.67
6216;BME280;3141;49.234;9.326;2023-03-04T03:12:50;100230.72;;;1.03;71.87
6216;BME280;3141;49.234;9.326;2023-03-04T03:13:33;100219.63;;;0.99;71.59
6216;BME280;3141;49.234;9.326;2023-03-04T03:14:15;100221.56;;;0.96;71.14
6216;BME280;3141;49.234;9.326;2023-03-04T03:14:57;100221.38;;;0.99;71.27
6216;BME280;3141;49.234;9.326;2023-03-04T03:15:40;100222.41;;;0.96;71.40
6216;BME280;3141;49.234;9.326;2023-03-04T03:16:23;100216.66;;;0.90;71.45
6216;BME280;3141;49.234;9.326;2023-03-04T03:17:05;100214.00;;;0.91;71.28
6216;BME280;3141;49.234;9.326;2023-03-04T03:17:48;100216.94;;;1.01;70.95
6216;BME280;3141;49.234;9.326;2023-03-04T03:18:30;100214.66;;;0.95;71.49
6216;BME280;3141;49.234;9.326;2023-03-04T03:19:12;100215.00;;;0.89;71.32
6216;BME280;3141;49.234;9.326;2023-03-04T03:19:55;100217.41;;;0.92;71.27
6216;BME280;3141;49.234;9.326;2023-03-04T03:20:37;100213.47;;;0.85;71.18
6216;BME280;3141;49.234;9.326;2023-03-04T03:21:19;100214.72;;;0.78;71.35
6216;BME280;3141;49.234;9.326;2023-03-04T03:22:02;100221.09;;;0.72;71.74
6216;BME280;3141;49.234;9.326;2023-03-04T03:22:44;100218.16;;;0.78;71.44
6216;BME280;3141;49.234;9.326;2023-03-04T03:23:27;100214.88;;;0.75;71.51
6216;BME280;3141;49.234;9.326;2023-03-04T03:24:09;100219.41;;;0.71;71.35
6216;BME280;3141;49.234;9.326;2023-03-04T03:24:52;100216.88;;;0.70;71.52
6216;BME280;3141;49.234;9.326;2023-03-04T03:25:34;100219.22;;;0.74;71.34
6216;BME280;3141;49.234;9.326;2023-03-04T03:26:18;100219.66;;;0.67;71.21
6216;BME280;3141;49.234;9.326;2023-03-04T03:27:00;100216.28;;;0.65;70.81
6216;BME280;3141;49.234;9.326;2023-03-04T03:27:43;100219.50;;;0.70;71.12
6216;BME280;3141;49.234;9.326;2023-03-04T03:28:25;100215.22;;;0.69;70.86
6216;BME280;3141;49.234;9.326;2023-03-04T03:29:07;100218.63;;;0.69;70.98
6216;BME280;3141;49.234;9.326;2023-03-04T03:29:50;100214.28;;;0.70;71.13
6216;BME280;3141;49.234;9.326;2023-03-04T03:30:32;100216.13;;;0.68;71.04
6216;BME280;3141;49.234;9.326;2023-03-04T03:31:14;100214.75;;;0.61;71.16
6216;BME280;3141;49.234;9.326;2023-03-04T03:31:57;100217.06;;;0.67;70.92
6216;BME280;3141;49.234;9.326;2023-03-04T03:32:39;100217.16;;;0.65;71.22
6216;BME280;3141;49.234;9.326;2023-03-04T03:36:57;100207.38;;;0.53;71.43
6216;BME280;3141;49.234;9.326;2023-03-04T03:37:39;100214.41;;;0.51;71.38
6216;BME280;3141;49.234;9.326;2023-03-04T03:38:22;100208.88;;;0.57;71.04
6216;BME280;3141;49.234;9.326;2023-03-04T03:39:04;100212.66;;;0.52;71.16
6216;BME280;3141;49.234;9.326;2023-03-04T03:39:46;100212.81;;;0.49;71.31
6216;BME280;3141;49.234;9.326;2023-03-04T03:40:29;100212.03;;;0.47;71.34
6216;BME280;3141;49.234;9.326;2023-03-04T03:41:11;100214.72;;;0.45;71.54
6216;BME280;3141;49.234;9.326;2023-03-04T03:41:53;100210.53;;;0.43;71.21
6216;BME280;3141;49.234;9.326;2023-03-04T03:42:36;100216.41;;;0.46;71.28
6216;BME280;3141;49.234;9.326;2023-03-04T03:43:18;100217.25;;;0.47;71.21
6216;BME280;3141;49.234;9.326;2023-03-04T03:44:00;100212.97;;;0.46;71.17
6216;BME280;3141;49.234;9.326;2023-03-04T03:44:43;100221.38;;;0.51;71.56
6216;BME280;3141;49.234;9.326;2023-03-04T03:45:25;100225.59;;;0.53;71.12
6216;BME280;3141;49.234;9.326;2023-03-04T03:46:07;100226.19;;;0.58;71.30
6216;BME280;3141;49.234;9.326;2023-03-04T03:46:50;100222.31;;;0.50;71.37
6216;BME280;3141;49.234;9.326;2023-03-04T03:47:32;100228.56;;;0.46;71.42
6216;BME280;3141;49.234;9.326;2023-03-04T03:48:14;100227.34;;;0.53;71.27
6216;BME280;3141;49.234;9.326;2023-03-04T03:48:57;100230.47;;;0.59;71.32
6216;BME280;3141;49.234;9.326;2023-03-04T03:49:39;100225.50;;;0.55;71.01
6216;BME280;3141;49.234;9.326;2023-03-04T03:50:21;100222.13;;;0.53;71.22
6216;BME280;3141;49.234;9.326;2023-03-04T03:51:04;100226.31;;;0.55;71.03
6216;BME280;3141;49.234;9.326;2023-03-04T03:51:46;100220.53;;;0.50;70.97
6216;BME280;3141;49.234;9.326;2023-03-04T03:52:28;100230.78;;;0.53;70.98
6216;BME280;3141;49.234;9.326;2023-03-04T03:53:11;100229.00;;;0.54;71.16
6216;BME280;3141;49.234;9.326;2023-03-04T03:53:53;100236.97;;;0.51;71.03
6216;BME280;3141;49.234;9.326;2023-03-04T03:54:35;100231.00;;;0.49;71.23
6216;BME280;3141;49.234;9.326;2023-03-04T03:55:18;100230.88;;;0.52;70.96
6216;BME280;3141;49.234;9.326;2023-03-04T03:56:00;100226.31;;;0.55;70.94
6216;BME280;3141;49.234;9.326;2023-03-04T03:56:42;100228.19;;;0.53;70.63
6216;BME280;3141;49.234;9.326;2023-03-04T03:57:25;100229.09;;;0.52;70.86
6216;BME280;3141;49.234;9.326;2023-03-04T03:58:07;100229.69;;;0.57;70.54
6216;BME280;3141;49.234;9.326;2023-03-04T03:58:49;100233.13;;;0.58;70.30
6216;BME280;3141;49.234;9.326;2023-03-04T03:59:31;100240.66;;;0.64;70.26
6216;BME280;3141;49.234;9.326;2023-03-04T04:00:14;100236.16;;;0.66;70.03
6216;BME280;3141;49.234;9.326;2023-03-04T04:00:57;100239.97;;;0.60;69.93
6216;BME280;3141;49.234;9.326;2023-03-04T04:01:39;100234.66;;;0.62;69.89